createdAt,value
2023-04-11T00:02:19.884Z,9.86
2023-04-11T00:04:47.941Z,9.88
2023-04-11T00:07:17.021Z,9.85
2023-04-11T00:09:44.666Z,9.83
2023-04-11T00:12:12.313Z,9.82
2023-04-11T00:14:45.361Z,9.80
2023-04-11T00:17:13.402Z,9.78
2023-04-11T00:19:43.319Z,9.78
2023-04-11T00:22:11.405Z,9.78
2023-04-11T00:24:40.486Z,9.76
2023-04-11T00:27:08.134Z,9.76
2023-04-11T00:29:37.001Z,9.74
2023-04-11T00:32:05.103Z,9.77
2023-04-11T00:34:34.186Z,9.78
2023-04-11T00:37:02.635Z,9.81
2023-04-11T00:39:34.092Z,9.79
2023-04-11T00:42:07.782Z,9.77
2023-04-11T00:44:36.173Z,9.76
2023-04-11T00:47:06.253Z,9.72
2023-04-11T00:49:34.171Z,9.69
2023-04-11T00:52:01.845Z,9.68
2023-04-11T00:54:30.456Z,9.66
2023-04-11T00:57:01.027Z,9.63
2023-04-11T00:59:31.056Z,9.64
2023-04-11T01:01:59.852Z,9.62
2023-04-11T01:04:29.373Z,9.65
2023-04-11T01:07:01.861Z,9.64
2023-04-11T01:09:29.916Z,9.63
2023-04-11T01:11:58.088Z,9.61
2023-04-11T01:14:27.057Z,9.54
2023-04-11T01:16:57.354Z,9.51
2023-04-11T01:19:26.950Z,9.47
2023-04-11T01:21:57.022Z,9.45
2023-04-11T01:24:26.126Z,9.48
2023-04-11T01:26:53.774Z,9.45
2023-04-11T01:29:21.896Z,9.45
2023-04-11T01:31:51.171Z,9.44
2023-04-11T01:34:20.597Z,9.40
2023-04-11T01:36:48.806Z,9.39
2023-04-11T01:39:16.527Z,9.39
2023-04-11T01:41:47.631Z,9.39
2023-04-11T01:44:15.423Z,9.38
2023-04-11T01:46:44.290Z,9.37
2023-04-11T01:49:16.236Z,9.37
2023-04-11T01:51:43.941Z,9.38
2023-04-11T01:54:11.539Z,9.42
2023-04-11T01:56:39.340Z,9.42
2023-04-11T01:59:08.273Z,9.40
2023-04-11T02:01:36.164Z,9.43
2023-04-11T02:04:04.140Z,9.45
2023-04-11T02:06:31.923Z,9.44
2023-04-11T02:08:59.504Z,9.47
2023-04-11T02:11:27.139Z,9.48
2023-04-11T02:13:54.757Z,9.47
2023-04-11T02:16:25.901Z,9.47
2023-04-11T02:18:54.262Z,9.47
2023-04-11T02:21:22.192Z,9.44
2023-04-11T02:23:49.907Z,9.43
2023-04-11T02:26:17.548Z,9.41
2023-04-11T02:28:45.185Z,9.40
2023-04-11T02:31:12.814Z,9.41
2023-04-11T02:33:41.784Z,9.43
2023-04-11T02:36:09.938Z,9.42
2023-04-11T02:38:37.569Z,9.43
2023-04-11T02:41:06.031Z,9.40
2023-04-11T02:43:33.750Z,9.36
2023-04-11T02:46:11.570Z,9.33
2023-04-11T02:48:41.389Z,9.30
2023-04-11T02:51:09.112Z,9.30
2023-04-11T02:53:36.922Z,9.28
2023-04-11T02:56:05.307Z,9.29
2023-04-11T02:58:33.221Z,9.30
2023-04-11T03:01:00.836Z,9.31
2023-04-11T03:03:28.541Z,9.33
2023-04-11T03:05:58.314Z,9.34
2023-04-11T03:08:26.009Z,9.37
2023-04-11T03:10:53.638Z,9.36
2023-04-11T03:13:21.498Z,9.36
2023-04-11T03:15:49.396Z,9.34
2023-04-11T03:18:18.048Z,9.28
2023-04-11T03:20:45.682Z,9.20
2023-04-11T03:23:14.779Z,9.22
2023-04-11T03:25:44.619Z,9.25
2023-04-11T03:28:12.609Z,9.25
2023-04-11T03:30:42.494Z,9.26
2023-04-11T03:33:10.523Z,9.25
2023-04-11T03:35:38.906Z,9.22
2023-04-11T03:38:06.639Z,9.19
2023-04-11T03:40:35.940Z,9.18
2023-04-11T03:43:04.807Z,9.12
2023-04-11T03:45:32.638Z,9.00
2023-04-11T03:48:00.617Z,8.97
2023-04-11T03:50:28.934Z,9.00
2023-04-11T03:52:56.852Z,8.79
2023-04-11T03:55:25.960Z,8.71
2023-04-11T03:57:55.069Z,8.59
2023-04-11T04:00:22.717Z,8.44
2023-04-11T04:02:50.531Z,8.33
2023-04-11T04:05:18.330Z,8.26
2023-04-11T04:07:46.065Z,8.21
2023-04-11T04:10:13.682Z,8.22
2023-04-11T04:12:41.312Z,8.19
2023-04-11T04:15:14.558Z,8.14
2023-04-11T04:17:42.328Z,8.16
2023-04-11T04:20:11.182Z,8.17
2023-04-11T04:22:38.920Z,8.19
2023-04-11T04:25:09.522Z,8.16
2023-04-11T04:27:37.346Z,8.17
2023-04-11T04:30:05.672Z,8.14
2023-04-11T04:32:34.718Z,8.12
2023-04-11T04:35:02.324Z,8.11
2023-04-11T04:37:30.063Z,8.07
2023-04-11T04:40:07.690Z,8.00
2023-04-11T04:42:36.488Z,7.99
2023-04-11T04:45:04.452Z,8.01
2023-04-11T04:47:36.543Z,7.98
2023-04-11T04:50:04.720Z,7.98
2023-04-11T04:52:32.400Z,7.99
2023-04-11T04:55:00.998Z,8.02
2023-04-11T04:57:31.843Z,8.02
2023-04-11T04:59:59.789Z,8.04
2023-04-11T05:02:27.811Z,8.08
2023-04-11T05:04:56.990Z,8.08
2023-04-11T05:07:24.569Z,8.09
2023-04-11T05:09:52.139Z,8.11
2023-04-11T05:12:21.740Z,8.15
2023-04-11T05:14:49.360Z,8.18
2023-04-11T05:17:17.069Z,8.13
2023-04-11T05:19:44.640Z,8.13
2023-04-11T05:22:13.770Z,8.11
2023-04-11T05:24:41.352Z,8.12
2023-04-11T05:27:08.967Z,8.10
2023-04-11T05:29:36.597Z,8.11
2023-04-11T05:32:04.277Z,8.14
2023-04-11T05:34:33.060Z,8.15
2023-04-11T05:37:01.280Z,8.17
2023-04-11T05:39:30.393Z,8.19
2023-04-11T05:41:57.998Z,8.24
2023-04-11T05:44:25.638Z,8.19
2023-04-11T05:46:53.303Z,8.21
2023-04-11T05:49:21.323Z,8.24
2023-04-11T05:51:48.920Z,8.24
2023-04-11T05:54:34.168Z,8.29
2023-04-11T05:57:03.186Z,8.30
2023-04-11T05:59:31.726Z,8.33
2023-04-11T06:01:59.452Z,8.34
2023-04-11T06:04:27.474Z,8.32
2023-04-11T06:06:57.583Z,8.33
2023-04-11T06:09:25.312Z,8.41
2023-04-11T06:11:54.286Z,8.44
2023-04-11T06:14:21.892Z,8.51
2023-04-11T06:16:49.676Z,8.55
2023-04-11T06:19:18.406Z,8.60
2023-04-11T06:21:46.134Z,8.60
2023-04-11T06:24:13.727Z,8.61
2023-04-11T06:26:41.319Z,8.67
2023-04-11T06:29:10.496Z,8.64
2023-04-11T06:31:38.170Z,8.66
2023-04-11T06:34:06.220Z,8.63
2023-04-11T06:36:34.057Z,8.68
2023-04-11T06:39:01.667Z,8.72
2023-04-11T06:41:29.268Z,8.75
2023-04-11T06:43:57.085Z,8.87
2023-04-11T06:46:26.226Z,8.88
2023-04-11T06:48:53.844Z,8.92
2023-04-11T06:51:21.466Z,8.97
2023-04-11T06:53:49.094Z,9.01
2023-04-11T06:56:16.663Z,9.04
2023-04-11T06:58:44.215Z,9.02
2023-04-11T07:01:12.249Z,8.93
2023-04-11T07:03:41.756Z,8.97
2023-04-11T07:06:10.311Z,8.96
2023-04-11T07:08:38.518Z,8.91
2023-04-11T07:11:06.588Z,8.88
2023-04-11T07:13:34.374Z,8.91
2023-04-11T07:16:02.068Z,8.93
2023-04-11T07:18:29.738Z,8.95
2023-04-11T07:20:58.838Z,8.86
2023-04-11T07:23:26.995Z,8.91
2023-04-11T07:25:55.598Z,9.02
2023-04-11T07:28:23.661Z,9.05
2023-04-11T07:30:52.072Z,9.14
2023-04-11T07:33:19.644Z,9.24
2023-04-11T07:35:47.292Z,9.38
2023-04-11T07:38:29.578Z,9.41
2023-04-11T07:40:58.178Z,9.55
2023-04-11T07:43:26.711Z,9.66
2023-04-11T07:45:55.249Z,9.89
2023-04-11T07:48:23.255Z,10.16
2023-04-11T07:50:50.887Z,10.31
2023-04-11T07:53:19.826Z,10.36
2023-04-11T07:55:47.469Z,10.23
2023-04-11T07:58:15.335Z,10.12
2023-04-11T08:00:43.034Z,10.07
2023-04-11T08:03:13.257Z,10.03
2023-04-11T08:05:41.253Z,10.17
2023-04-11T08:08:08.968Z,10.41
2023-04-11T08:10:38.143Z,10.58
2023-04-11T08:13:05.987Z,10.71
2023-04-11T08:15:34.850Z,11.01
2023-04-11T08:18:02.573Z,11.55
2023-04-11T08:20:30.420Z,11.99
2023-04-11T08:22:58.643Z,12.36
2023-04-11T08:25:26.437Z,12.42
2023-04-11T08:27:55.405Z,12.30
2023-04-11T08:30:23.346Z,12.14
2023-04-11T08:32:51.239Z,11.98
2023-04-11T08:35:18.978Z,11.89
2023-04-11T08:37:46.628Z,11.68
2023-04-11T08:40:14.377Z,11.34
2023-04-11T08:42:42.034Z,11.23
2023-04-11T08:45:12.238Z,10.97
2023-04-11T08:47:39.986Z,10.93
2023-04-11T08:50:09.515Z,10.81
2023-04-11T08:52:39.536Z,10.68
2023-04-11T08:55:07.756Z,10.50
2023-04-11T08:57:38.212Z,10.37
2023-04-11T09:00:14.423Z,10.32
2023-04-11T09:03:00.640Z,10.32
2023-04-11T09:05:31.027Z,10.40
2023-04-11T09:07:59.042Z,10.57
2023-04-11T09:10:27.668Z,11.10
2023-04-11T09:12:56.206Z,11.75
2023-04-11T09:15:25.677Z,12.00
2023-04-11T09:17:53.554Z,12.23
2023-04-11T09:20:26.104Z,12.38
2023-04-11T09:22:54.873Z,12.39
2023-04-11T09:25:24.079Z,12.23
2023-04-11T09:28:07.562Z,11.97
2023-04-11T09:30:35.703Z,11.68
2023-04-11T09:33:20.022Z,11.49
2023-04-11T09:35:50.129Z,11.36
2023-04-11T09:38:29.197Z,11.22
2023-04-11T09:40:57.658Z,11.14
2023-04-11T09:43:25.846Z,11.10
2023-04-11T09:46:09.518Z,11.08
2023-04-11T09:48:46.640Z,11.26
2023-04-11T09:51:34.251Z,11.42
2023-04-11T09:54:04.510Z,11.57
2023-04-11T09:56:34.165Z,11.44
2023-04-11T09:59:03.928Z,11.24
2023-04-11T10:01:31.704Z,10.91
2023-04-11T10:04:01.362Z,10.70
2023-04-11T10:06:34.113Z,10.37
2023-04-11T10:09:09.684Z,10.29
2023-04-11T10:11:37.829Z,10.19
2023-04-11T10:14:05.730Z,10.16
2023-04-11T10:16:34.389Z,9.93
2023-04-11T10:19:24.884Z,9.78
2023-04-11T10:21:53.916Z,9.69
2023-04-11T10:24:22.159Z,9.55
2023-04-11T10:26:51.981Z,9.52
2023-04-11T10:29:49.938Z,9.48
2023-04-11T10:32:21.406Z,9.58
2023-04-11T10:35:31.943Z,9.76
2023-04-11T10:38:01.203Z,9.89
2023-04-11T10:40:28.800Z,9.87
2023-04-11T10:42:57.420Z,9.77
2023-04-11T10:45:26.545Z,9.63
2023-04-11T10:48:12.833Z,8.99
2023-04-11T10:50:43.111Z,8.95
2023-04-11T10:53:38.402Z,8.96
2023-04-11T10:56:06.668Z,8.93
2023-04-11T10:58:39.927Z,8.91
2023-04-11T11:01:31.444Z,9.06
2023-04-11T11:04:05.767Z,9.28
2023-04-11T11:06:46.237Z,9.53
2023-04-11T11:09:23.940Z,9.93
2023-04-11T11:12:06.814Z,10.10
2023-04-11T11:14:34.514Z,10.37
2023-04-11T11:17:03.022Z,10.54
2023-04-11T11:19:31.449Z,10.79
2023-04-11T11:22:03.414Z,11.05
2023-04-11T11:24:33.044Z,11.23
2023-04-11T11:27:00.738Z,11.57
2023-04-11T11:29:32.858Z,11.87
2023-04-11T11:32:03.398Z,12.09
2023-04-11T11:34:32.802Z,12.17
2023-04-11T11:37:04.294Z,11.98
2023-04-11T11:39:35.404Z,12.36
2023-04-11T11:42:03.415Z,12.47
2023-04-11T11:44:32.513Z,12.66
2023-04-11T11:47:04.520Z,12.63
2023-04-11T11:49:45.716Z,12.35
2023-04-11T11:52:13.716Z,12.18
2023-04-11T11:54:47.008Z,11.85
2023-04-11T11:57:22.590Z,11.62
2023-04-11T11:59:54.237Z,11.35
2023-04-11T12:02:23.783Z,11.20
2023-04-11T12:04:51.873Z,10.96
2023-04-11T12:07:22.642Z,10.85
2023-04-11T12:09:57.057Z,10.76
2023-04-11T12:12:24.627Z,10.47
2023-04-11T12:14:55.531Z,10.47
2023-04-11T12:17:23.125Z,10.72
2023-04-11T12:19:50.730Z,11.02
2023-04-11T12:22:18.361Z,11.24
2023-04-11T12:24:46.139Z,11.28
2023-04-11T12:27:15.062Z,11.13
2023-04-11T12:29:42.663Z,10.96
2023-04-11T12:32:10.222Z,10.79
2023-04-11T12:34:37.775Z,10.66
2023-04-11T12:37:05.383Z,10.82
2023-04-11T12:39:32.946Z,11.15
2023-04-11T12:42:00.601Z,11.32
2023-04-11T12:44:29.579Z,11.47
2023-04-11T12:46:57.217Z,11.44
2023-04-11T12:49:24.953Z,11.53
2023-04-11T12:51:52.634Z,11.56
2023-04-11T12:54:20.727Z,11.67
2023-04-11T12:56:48.345Z,11.75
2023-04-11T12:59:16.699Z,11.71
2023-04-11T13:01:46.728Z,11.91
2023-04-11T13:04:14.586Z,12.13
2023-04-11T13:06:43.104Z,12.06
2023-04-11T13:09:12.459Z,12.27
2023-04-11T13:11:40.023Z,12.38
2023-04-11T13:14:07.708Z,12.50
2023-04-11T13:16:35.316Z,12.52
2023-04-11T13:19:04.442Z,12.84
2023-04-11T13:21:32.490Z,12.86
2023-04-11T13:24:00.493Z,13.06
2023-04-11T13:26:28.670Z,13.16
2023-04-11T13:28:56.659Z,13.14
2023-04-11T13:31:26.567Z,13.44
2023-04-11T13:33:54.292Z,13.78
2023-04-11T13:36:23.468Z,13.75
2023-04-11T13:38:52.356Z,13.89
2023-04-11T13:41:20.404Z,13.64
2023-04-11T13:43:49.148Z,13.32
2023-04-11T13:46:17.321Z,13.62
2023-04-11T13:48:45.495Z,13.65
2023-04-11T13:51:13.142Z,13.67
2023-04-11T13:53:42.076Z,13.64
2023-04-11T13:56:10.625Z,13.54
2023-04-11T13:58:39.073Z,13.24
2023-04-11T14:01:07.234Z,13.02
2023-04-11T14:03:34.997Z,12.75
2023-04-11T14:06:03.366Z,12.90
2023-04-11T14:08:31.019Z,12.88
2023-04-11T14:10:59.950Z,13.08
2023-04-11T14:13:27.668Z,13.16
2023-04-11T14:18:29.192Z,12.95
2023-04-11T14:20:58.364Z,12.12
2023-04-11T14:23:26.609Z,11.52
2023-04-11T14:25:54.266Z,11.46
2023-04-11T14:28:26.527Z,11.40
2023-04-11T14:30:54.923Z,11.54
2023-04-11T14:33:22.967Z,11.71
2023-04-11T14:35:51.360Z,11.96
2023-04-11T14:38:19.170Z,12.18
2023-04-11T14:40:46.928Z,12.64
2023-04-11T14:43:14.694Z,12.41
2023-04-11T14:45:43.761Z,12.41
2023-04-11T14:48:11.673Z,12.38
2023-04-11T14:50:39.360Z,11.93
2023-04-11T14:53:06.940Z,11.58
2023-04-11T14:55:34.512Z,11.43
2023-04-11T14:58:02.135Z,11.46
2023-04-11T15:00:29.789Z,11.34
2023-04-11T15:02:58.812Z,11.48
2023-04-11T15:05:26.835Z,11.43
2023-04-11T15:07:54.674Z,11.27
2023-04-11T15:10:23.796Z,11.23
2023-04-11T15:12:51.579Z,11.17
2023-04-11T15:15:19.332Z,11.23
2023-04-11T15:17:48.542Z,11.29
2023-04-11T15:20:19.613Z,11.56
2023-04-11T15:22:47.241Z,11.55
2023-04-11T15:25:16.525Z,11.62
2023-04-11T15:27:44.405Z,11.40
2023-04-11T15:30:12.660Z,11.33
2023-04-11T15:32:44.106Z,11.30
2023-04-11T15:35:12.274Z,11.18
2023-04-11T15:37:42.695Z,11.06
2023-04-11T15:40:12.278Z,10.91
2023-04-11T15:42:40.199Z,10.83
2023-04-11T15:45:08.921Z,10.68
2023-04-11T15:47:36.576Z,10.68
2023-04-11T15:50:04.701Z,10.69
2023-04-11T15:52:32.455Z,10.64
2023-04-11T15:55:01.453Z,10.66
2023-04-11T15:57:29.121Z,10.68
2023-04-11T15:59:57.052Z,10.80
2023-04-11T16:02:24.846Z,10.73
2023-04-11T16:04:54.219Z,10.68
2023-04-11T16:07:23.046Z,10.41
2023-04-11T16:09:50.868Z,10.08
2023-04-11T16:12:20.207Z,9.82
2023-04-11T16:14:48.033Z,9.80
2023-04-11T16:17:18.236Z,9.74
2023-04-11T16:19:46.049Z,9.78
2023-04-11T16:22:13.835Z,9.78
2023-04-11T16:24:41.441Z,9.85
2023-04-11T16:27:09.044Z,9.85
2023-04-11T16:29:38.136Z,9.91
2023-04-11T16:32:06.233Z,9.60
2023-04-11T16:34:33.971Z,9.69
2023-04-11T16:37:02.345Z,9.66
2023-04-11T16:39:29.955Z,9.71
2023-04-11T16:41:57.680Z,9.81
2023-04-11T16:44:25.265Z,9.77
2023-04-11T16:46:54.654Z,9.87
2023-04-11T16:49:22.270Z,9.73
2023-04-11T16:51:49.881Z,9.68
2023-04-11T16:54:17.547Z,9.65
2023-04-11T16:56:47.231Z,9.54
2023-04-11T16:59:15.967Z,9.41
2023-04-11T17:01:44.895Z,9.37
2023-04-11T17:04:14.122Z,9.34
2023-04-11T17:06:41.947Z,9.35
2023-04-11T17:09:10.495Z,9.36
2023-04-11T17:11:39.503Z,9.38
2023-04-11T17:14:07.976Z,9.43
2023-04-11T17:16:35.618Z,9.41
2023-04-11T17:19:04.950Z,9.32
2023-04-11T17:21:34.065Z,9.13
2023-04-11T17:24:01.812Z,9.06
2023-04-11T17:26:29.593Z,8.98
2023-04-11T17:28:57.369Z,9.03
2023-04-11T17:31:27.582Z,9.00
2023-04-11T17:33:55.567Z,8.94
2023-04-11T17:36:24.261Z,8.97
2023-04-11T17:38:54.655Z,8.92
2023-04-11T17:41:22.828Z,8.89
2023-04-11T17:43:50.623Z,8.85
2023-04-11T17:46:18.263Z,8.80
2023-04-11T17:48:46.240Z,8.80
2023-04-11T17:51:13.928Z,8.78
2023-04-11T17:53:41.748Z,8.75
2023-04-11T17:56:11.554Z,8.76
2023-04-11T17:58:42.517Z,8.71
2023-04-11T18:01:11.004Z,8.64
2023-04-11T18:03:39.737Z,8.64
2023-04-11T18:06:08.388Z,8.59
2023-04-11T18:08:49.776Z,8.57
2023-04-11T18:11:20.795Z,8.56
2023-04-11T18:13:50.293Z,8.51
2023-04-11T18:16:18.593Z,8.48
2023-04-11T18:18:46.956Z,8.49
2023-04-11T18:21:14.634Z,8.44
2023-04-11T18:23:42.233Z,8.41
2023-04-11T18:26:09.873Z,8.42
2023-04-11T18:28:38.891Z,8.40
2023-04-11T18:31:06.842Z,8.34
2023-04-11T18:33:35.644Z,8.28
2023-04-11T18:36:03.684Z,8.21
2023-04-11T18:38:31.611Z,8.14
2023-04-11T18:41:02.230Z,7.97
2023-04-11T18:43:32.976Z,7.85
2023-04-11T18:46:04.043Z,7.78
2023-04-11T18:48:31.897Z,7.74
2023-04-11T18:51:00.593Z,7.61
2023-04-11T18:53:29.863Z,7.49
2023-04-11T18:55:57.930Z,7.46
2023-04-11T18:58:26.400Z,7.46
2023-04-11T19:00:55.005Z,7.43
2023-04-11T19:03:24.323Z,7.39
2023-04-11T19:05:52.967Z,7.35
2023-04-11T19:08:20.957Z,7.35
2023-04-11T19:10:48.674Z,7.36
2023-04-11T19:13:16.322Z,7.39
2023-04-11T19:15:44.013Z,7.41
2023-04-11T19:18:11.816Z,7.41
2023-04-11T19:20:40.915Z,7.42
2023-04-11T19:23:08.579Z,7.40
2023-04-11T19:25:36.228Z,7.39
2023-04-11T19:28:04.048Z,7.39
2023-04-11T19:30:34.918Z,7.37
2023-04-11T19:33:03.114Z,7.34
2023-04-11T19:35:30.819Z,7.33
2023-04-11T19:38:02.610Z,7.30
2023-04-11T19:40:30.339Z,7.28
2023-04-11T19:42:58.047Z,7.26
2023-04-11T19:45:25.864Z,7.20
2023-04-11T19:47:53.522Z,7.16
2023-04-11T19:50:22.755Z,7.10
2023-04-11T19:52:50.816Z,7.06
2023-04-11T19:55:19.873Z,6.99
2023-04-11T19:57:47.581Z,6.94
2023-04-11T20:00:17.058Z,6.88
2023-04-11T20:02:46.785Z,6.81
2023-04-11T20:05:15.224Z,6.76
2023-04-11T20:07:43.943Z,6.72
2023-04-11T20:10:12.268Z,6.72
2023-04-11T20:12:41.789Z,6.73
2023-04-11T20:15:10.612Z,6.76
2023-04-11T20:17:38.320Z,6.80
2023-04-11T20:20:08.682Z,6.86
2023-04-11T20:22:38.311Z,6.89
2023-04-11T20:25:08.180Z,6.88
2023-04-11T20:27:36.281Z,6.82
2023-04-11T20:30:09.125Z,6.78
2023-04-11T20:32:36.933Z,6.71
2023-04-11T20:35:05.084Z,6.64
2023-04-11T20:37:34.453Z,6.59
2023-04-11T20:40:02.513Z,6.51
2023-04-11T20:42:31.615Z,6.43
2023-04-11T20:45:05.972Z,6.39
2023-04-11T20:47:37.380Z,6.33
2023-04-11T20:50:05.641Z,6.28
2023-04-11T20:52:33.378Z,6.21
2023-04-11T20:55:01.182Z,6.16
2023-04-11T20:57:31.085Z,6.11
2023-04-11T20:59:59.326Z,6.06
2023-04-11T21:02:29.292Z,6.02
2023-04-11T21:04:57.008Z,5.98
2023-04-11T21:07:24.608Z,5.93
2023-04-11T21:09:52.625Z,5.86
2023-04-11T21:12:20.217Z,5.81
2023-04-11T21:14:47.852Z,5.75
2023-04-11T21:17:15.502Z,5.70
2023-04-11T21:19:44.450Z,5.67
2023-04-11T21:22:13.012Z,5.65
2023-04-11T21:24:41.172Z,5.62
2023-04-11T21:27:08.817Z,5.55
2023-04-11T21:29:36.411Z,5.52
2023-04-11T21:32:04.008Z,5.49
2023-04-11T21:34:31.637Z,5.48
2023-04-11T21:37:00.740Z,5.43
2023-04-11T21:39:28.363Z,5.41
2023-04-11T21:41:56.560Z,5.39
2023-04-11T21:44:24.233Z,5.35
2023-04-11T21:46:51.859Z,5.34
2023-04-11T21:49:19.682Z,5.29
2023-04-11T21:51:47.313Z,5.24
2023-04-11T21:54:16.416Z,5.19
2023-04-11T21:56:44.884Z,5.15
2023-04-11T21:59:12.587Z,5.11
2023-04-11T22:01:41.579Z,5.07
2023-04-11T22:04:10.515Z,5.02
2023-04-11T22:06:38.770Z,4.98
2023-04-11T22:09:06.422Z,4.95
2023-04-11T22:11:35.362Z,4.91
2023-04-11T22:14:03.327Z,4.87
2023-04-11T22:16:31.887Z,4.83
2023-04-11T22:19:00.724Z,4.79
2023-04-11T22:21:32.893Z,4.75
2023-04-11T22:24:02.141Z,4.72
2023-04-11T22:26:34.098Z,4.64
2023-04-11T22:29:05.088Z,4.60
2023-04-11T22:31:34.335Z,4.54
2023-04-11T22:34:02.162Z,4.50
2023-04-11T22:36:35.515Z,4.45
2023-04-11T22:39:04.123Z,4.42
2023-04-11T22:41:33.025Z,4.38
2023-04-11T22:44:01.493Z,4.35
2023-04-11T22:46:32.364Z,4.31
2023-04-11T22:49:00.004Z,4.28
2023-04-11T22:51:30.039Z,4.28
2023-04-11T22:53:58.182Z,4.24
2023-04-11T22:56:26.329Z,4.21
2023-04-11T22:58:54.118Z,4.18
2023-04-11T23:01:22.308Z,4.16
2023-04-11T23:03:51.821Z,4.13
2023-04-11T23:06:19.510Z,4.09
2023-04-11T23:08:47.419Z,4.06
2023-04-11T23:11:15.100Z,4.03
2023-04-11T23:13:43.114Z,4.00
2023-04-11T23:16:10.820Z,3.97
2023-04-11T23:18:38.771Z,3.96
2023-04-11T23:21:13.088Z,3.94
2023-04-11T23:23:41.482Z,3.90
2023-04-11T23:26:09.227Z,3.89
2023-04-11T23:28:36.821Z,3.86
2023-04-11T23:31:04.727Z,3.84
2023-04-11T23:33:32.479Z,3.83
2023-04-11T23:36:00.110Z,3.81
2023-04-11T23:38:29.769Z,3.82
2023-04-11T23:40:57.594Z,3.79
2023-04-11T23:43:25.452Z,3.78
2023-04-11T23:45:54.898Z,3.79
2023-04-11T23:48:22.642Z,3.78
2023-04-11T23:50:51.109Z,3.80
2023-04-11T23:53:18.739Z,3.81
2023-04-11T23:55:48.007Z,3.78
2023-04-11T23:58:15.788Z,3.77
